sensor_id;sensor_type;location;lat;lon;timestamp;pressure;altitude;pressure_sealevel;temperature;humidity
59859;BME280;45734;53.648;9.566;2023-06-24T00:03:34;91763.94;;;-145.06;100.00
59859;BME280;45734;53.648;9.566;2023-06-24T00:08:37;91817.09;;;-145.06;100.00
59859;BME280;45734;53.648;9.566;2023-06-24T00:13:37;91837.53;;;-145.06;100.00
59859;BME280;45734;53.648;9.566;2023-06-24T00:18:37;91896.81;;;-145.06;100.00
59859;BME280;45734;53.648;9.566;2023-06-24T00:23:41;91927.50;;;-145.06;100.00
59859;BME280;45734;53.648;9.566;2023-06-24T00:28:43;91960.22;;;-145.06;100.00
59859;BME280;45734;53.648;9.566;2023-06-24T00:33:43;92005.19;;;-145.06;100.00
59859;BME280;45734;53.648;9.566;2023-06-24T00:38:44;92021.53;;;-145.06;100.00
59859;BME280;45734;53.648;9.566;2023-06-24T00:43:45;92076.75;;;-145.06;100.00
59859;BME280;45734;53.648;9.566;2023-06-24T00:48:45;92160.56;;;-145.06;100.00
59859;BME280;45734;53.648;9.566;2023-06-24T00:53:45;92146.25;;;-145.06;100.00
59859;BME280;45734;53.648;9.566;2023-06-24T00:58:47;92164.66;;;-145.06;100.00
59859;BME280;45734;53.648;9.566;2023-06-24T01:03:47;92219.88;;;-145.06;100.00
59859;BME280;45734;53.648;9.566;2023-06-24T01:08:48;92279.16;;;-145.06;100.00
59859;BME280;45734;53.648;9.566;2023-06-24T01:13:51;92266.91;;;-145.06;100.00
59859;BME280;45734;53.648;9.566;2023-06-24T01:18:56;92328.25;;;-145.06;100.00
59859;BME280;45734;53.648;9.566;2023-06-24T01:24:20;92377.31;;;-145.06;100.00
59859;BME280;45734;53.648;9.566;2023-06-24T01:29:50;92373.22;;;-145.06;100.00
59859;BME280;45734;53.648;9.566;2023-06-24T01:34:58;92389.59;;;-145.06;100.00
59859;BME280;45734;53.648;9.566;2023-06-24T01:40:06;92434.56;;;-145.06;100.00
59859;BME280;45734;53.648;9.566;2023-06-24T01:45:15;92455.00;;;-145.06;100.00
59859;BME280;45734;53.648;9.566;2023-06-24T01:50:18;92504.09;;;-145.06;100.00
59859;BME280;45734;53.648;9.566;2023-06-24T01:55:21;92483.63;;;-145.06;100.00
59859;BME280;45734;53.648;9.566;2023-06-24T02:00:21;92520.44;;;-145.06;100.00
59859;BME280;45734;53.648;9.566;2023-06-24T02:05:24;92520.44;;;-145.06;100.00
59859;BME280;45734;53.648;9.566;2023-06-24T02:10:26;92544.97;;;-145.06;100.00
59859;BME280;45734;53.648;9.566;2023-06-24T02:15:28;92606.34;;;-145.06;100.00
59859;BME280;45734;53.648;9.566;2023-06-24T02:20:29;92637.00;;;-145.06;100.00
59859;BME280;45734;53.648;9.566;2023-06-24T02:25:31;92677.91;;;-145.06;100.00
59859;BME280;45734;53.648;9.566;2023-06-24T02:30:34;92716.75;;;-145.06;100.00
59859;BME280;45734;53.648;9.566;2023-06-24T02:35:35;92792.41;;;-145.06;100.00
59859;BME280;45734;53.648;9.566;2023-06-24T02:40:36;92722.88;;;-145.06;100.00
59859;BME280;45734;53.648;9.566;2023-06-24T02:45:36;92759.69;;;-145.06;100.00
59859;BME280;45734;53.648;9.566;2023-06-24T02:50:37;92949.88;;;-145.06;100.00
59859;BME280;45734;53.648;9.566;2023-06-24T02:55:40;92923.28;;;-145.06;100.00
59859;BME280;45734;53.648;9.566;2023-06-24T03:00:41;92978.50;;;-145.06;100.00
59859;BME280;45734;53.648;9.566;2023-06-24T03:05:41;92958.06;;;-145.06;100.00
59859;BME280;45734;53.648;9.566;2023-06-24T03:10:44;92913.06;;;-145.06;100.00
59859;BME280;45734;53.648;9.566;2023-06-24T03:15:45;92283.25;;;-145.06;100.00
59859;BME280;45734;53.648;9.566;2023-06-24T03:20:45;92183.06;;;-145.06;100.00
59859;BME280;45734;53.648;9.566;2023-06-24T03:25:46;92123.78;;;-145.06;100.00
59859;BME280;45734;53.648;9.566;2023-06-24T03:30:47;91976.56;;;-145.06;100.00
59859;BME280;45734;53.648;9.566;2023-06-24T03:35:47;91862.06;;;-145.06;100.00
59859;BME280;45734;53.648;9.566;2023-06-24T03:40:47;91653.53;;;-145.06;100.00
59859;BME280;45734;53.648;9.566;2023-06-24T03:45:48;91731.22;;;-145.06;100.00
59859;BME280;45734;53.648;9.566;2023-06-24T03:50:48;91559.50;;;-145.06;100.00
59859;BME280;45734;53.648;9.566;2023-06-24T03:55:48;91408.22;;;-145.06;100.00
59859;BME280;45734;53.648;9.566;2023-06-24T04:00:49;91167.00;;;-145.06;100.00
59859;BME280;45734;53.648;9.566;2023-06-24T04:05:49;91001.44;;;-145.06;100.00
59859;BME280;45734;53.648;9.566;2023-06-24T04:10:50;90829.75;;;-145.06;100.00
59859;BME280;45734;53.648;9.566;2023-06-24T04:15:50;90764.34;;;-145.06;100.00
59859;BME280;45734;53.648;9.566;2023-06-24T04:20:50;90551.78;;;-145.06;100.00
59859;BME280;45734;53.648;9.566;2023-06-24T04:25:51;90404.63;;;-145.06;97.80
59859;BME280;45734;53.648;9.566;2023-06-24T04:30:51;90218.66;;;-145.06;91.89
59859;BME280;45734;53.648;9.566;2023-06-24T04:35:52;90247.25;;;-145.06;89.94
59859;BME280;45734;53.648;9.566;2023-06-24T04:40:52;90010.19;;;-145.06;86.83
59859;BME280;45734;53.648;9.566;2023-06-24T04:45:53;89897.81;;;-145.06;85.04
59859;BME280;45734;53.648;9.566;2023-06-24T04:50:55;89748.63;;;-145.06;78.21
59859;BME280;45734;53.648;9.566;2023-06-24T04:55:56;89658.72;;;-145.06;77.84
59859;BME280;45734;53.648;9.566;2023-06-24T05:00:56;89470.75;;;-145.06;71.34
59859;BME280;45734;53.648;9.566;2023-06-24T05:05:56;89540.22;;;-145.06;71.90
59859;BME280;45734;53.648;9.566;2023-06-24T05:10:57;89597.44;;;-145.06;73.25
59859;BME280;45734;53.648;9.566;2023-06-24T05:15:57;89583.13;;;-145.06;72.40
59859;BME280;45734;53.648;9.566;2023-06-24T05:20:57;89389.00;;;-145.06;70.69
59859;BME280;45734;53.648;9.566;2023-06-24T05:25:57;89233.72;;;-145.06;69.23
59859;BME280;45734;53.648;9.566;2023-06-24T05:30:58;89262.34;;;-145.06;64.07
59859;BME280;45734;53.648;9.566;2023-06-24T05:35:58;89053.94;;;-145.06;62.04
59859;BME280;45734;53.648;9.566;2023-06-24T05:40:59;89025.34;;;-145.06;61.67
59859;BME280;45734;53.648;9.566;2023-06-24T05:45:59;88757.72;;;-145.06;59.77
59859;BME280;45734;53.648;9.566;2023-06-24T05:51:00;88665.78;;;-145.06;56.49
59859;BME280;45734;53.648;9.566;2023-06-24T05:56:00;88547.28;;;-145.06;53.80
59859;BME280;45734;53.648;9.566;2023-06-24T06:01:01;88543.22;;;-145.06;51.47
59859;BME280;45734;53.648;9.566;2023-06-24T06:06:02;88351.19;;;-145.06;47.70
59859;BME280;45734;53.648;9.566;2023-06-24T06:11:02;88371.63;;;-145.06;49.65
59859;BME280;45734;53.648;9.566;2023-06-24T06:16:02;88361.41;;;-145.06;48.60
59859;BME280;45734;53.648;9.566;2023-06-24T06:21:03;89025.34;;;-145.06;50.41
59859;BME280;45734;53.648;9.566;2023-06-24T06:26:03;88428.81;;;-145.06;47.43
59859;BME280;45734;53.648;9.566;2023-06-24T06:31:04;88273.56;;;-145.06;46.50
59859;BME280;45734;53.648;9.566;2023-06-24T06:36:04;88247.00;;;-145.06;45.35
59859;BME280;45734;53.648;9.566;2023-06-24T06:41:05;88187.78;;;-145.06;45.35
59859;BME280;45734;53.648;9.566;2023-06-24T06:46:05;88091.78;;;-145.06;44.55
59859;BME280;45734;53.648;9.566;2023-06-24T06:51:05;88079.53;;;-145.06;44.02
59859;BME280;45734;53.648;9.566;2023-06-24T06:56:05;88093.81;;;-145.06;42.84
59859;BME280;45734;53.648;9.566;2023-06-24T07:01:06;88163.25;;;-145.06;45.67
59859;BME280;45734;53.648;9.566;2023-06-24T07:06:06;88236.78;;;-145.06;47.25
59859;BME280;45734;53.648;9.566;2023-06-24T07:11:06;88234.75;;;-145.06;46.95
59859;BME280;45734;53.648;9.566;2023-06-24T07:16:07;88191.88;;;-145.06;44.20
59859;BME280;45734;53.648;9.566;2023-06-24T07:21:07;88277.66;;;-145.06;45.97
59859;BME280;45734;53.648;9.566;2023-06-24T07:26:07;88759.75;;;-145.06;53.22
59859;BME280;45734;53.648;9.566;2023-06-24T07:31:08;88892.53;;;-145.06;50.30
59859;BME280;45734;53.648;9.566;2023-06-24T07:36:08;88821.03;;;-145.06;50.70
59859;BME280;45734;53.648;9.566;2023-06-24T07:41:08;88819.00;;;-145.06;49.98
59859;BME280;45734;53.648;9.566;2023-06-24T07:46:08;88819.00;;;-145.06;48.77
59859;BME280;45734;53.648;9.566;2023-06-24T07:51:09;88727.06;;;-145.06;50.21
59859;BME280;45734;53.648;9.566;2023-06-24T07:56:09;88769.97;;;-145.06;47.30
59859;BME280;45734;53.648;9.566;2023-06-24T08:01:09;88669.88;;;-145.06;46.87
59859;BME280;45734;53.648;9.566;2023-06-24T08:06:10;88208.19;;;-145.06;45.09
59859;BME280;45734;53.648;9.566;2023-06-24T08:11:10;87997.81;;;-145.06;41.61
59859;BME280;45734;53.648;9.566;2023-06-24T08:16:10;88204.13;;;-145.06;42.79
59859;BME280;45734;53.648;9.566;2023-06-24T08:21:11;88110.16;;;-145.06;42.18
59859;BME280;45734;53.648;9.566;2023-06-24T08:26:11;88220.47;;;-145.06;43.57
59859;BME280;45734;53.648;9.566;2023-06-24T08:31:11;88234.75;;;-145.06;45.33
59859;BME280;45734;53.648;9.566;2023-06-24T08:36:12;88204.13;;;-145.06;43.88
59859;BME280;45734;53.648;9.566;2023-06-24T08:41:12;88169.38;;;-145.06;43.55
59859;BME280;45734;53.648;9.566;2023-06-24T08:46:13;88151.00;;;-145.06;43.77
59859;BME280;45734;53.648;9.566;2023-06-24T08:51:20;88251.09;;;-145.06;46.23
59859;BME280;45734;53.648;9.566;2023-06-24T08:56:24;88204.13;;;-145.06;44.24
59859;BME280;45734;53.648;9.566;2023-06-24T09:01:25;88226.59;;;-145.06;46.13
59859;BME280;45734;53.648;9.566;2023-06-24T09:06:27;88210.25;;;-145.06;45.21
59859;BME280;45734;53.648;9.566;2023-06-24T09:11:28;88304.22;;;-145.06;47.57
59859;BME280;45734;53.648;9.566;2023-06-24T09:16:29;88326.69;;;-145.06;49.24
59859;BME280;45734;53.648;9.566;2023-06-24T09:21:29;88294.00;;;-145.06;47.47
59859;BME280;45734;53.648;9.566;2023-06-24T09:26:30;88379.78;;;-145.06;48.66
59859;BME280;45734;53.648;9.566;2023-06-24T09:31:31;88406.34;;;-145.06;49.11
59859;BME280;45734;53.648;9.566;2023-06-24T09:36:32;88351.19;;;-145.06;50.16
59859;BME280;45734;53.648;9.566;2023-06-24T09:41:32;88249.06;;;-145.06;47.18
59859;BME280;45734;53.648;9.566;2023-06-24T09:46:33;88302.16;;;-145.06;47.36
59859;BME280;45734;53.648;9.566;2023-06-24T09:51:38;88312.38;;;-145.06;49.11
59859;BME280;45734;53.648;9.566;2023-06-24T09:56:48;88289.91;;;-145.06;48.84
59859;BME280;45734;53.648;9.566;2023-06-24T10:01:49;88343.03;;;-145.06;49.72
59859;BME280;45734;53.648;9.566;2023-06-24T10:06:52;88363.44;;;-145.06;49.19
59859;BME280;45734;53.648;9.566;2023-06-24T10:11:52;88392.03;;;-145.06;49.59
59859;BME280;45734;53.648;9.566;2023-06-24T10:17:03;88390.00;;;-145.06;50.78
59859;BME280;45734;53.648;9.566;2023-06-24T10:22:07;88394.09;;;-145.06;52.17
59859;BME280;45734;53.648;9.566;2023-06-24T10:27:15;88359.34;;;-145.06;50.35
59859;BME280;45734;53.648;9.566;2023-06-24T10:32:17;88387.97;;;-145.06;53.13
59859;BME280;45734;53.648;9.566;2023-06-24T10:37:30;88338.94;;;-145.06;49.44
59859;BME280;45734;53.648;9.566;2023-06-24T10:42:32;88375.69;;;-145.06;48.87
59859;BME280;45734;53.648;9.566;2023-06-24T10:47:34;88240.88;;;-145.06;48.70
59859;BME280;45734;53.648;9.566;2023-06-24T10:52:42;88414.50;;;-145.06;47.39
59859;BME280;45734;53.648;9.566;2023-06-24T10:57:44;88849.63;;;-145.06;48.03
59859;BME280;45734;53.648;9.566;2023-06-24T11:02:44;88563.63;;;-145.06;50.91
59859;BME280;45734;53.648;9.566;2023-06-24T11:07:45;88539.13;;;-145.06;52.04
59859;BME280;45734;53.648;9.566;2023-06-24T11:12:46;88467.63;;;-145.06;52.09
59859;BME280;45734;53.648;9.566;2023-06-24T11:17:50;88451.28;;;-145.06;47.99
59859;BME280;45734;53.648;9.566;2023-06-24T11:22:51;88457.41;;;-145.06;47.47
59859;BME280;45734;53.648;9.566;2023-06-24T11:27:51;88794.47;;;-145.06;48.53
59859;BME280;45734;53.648;9.566;2023-06-24T11:32:54;88663.72;;;-145.06;47.05
59859;BME280;45734;53.648;9.566;2023-06-24T11:37:57;88757.72;;;-145.06;51.06
59859;BME280;45734;53.648;9.566;2023-06-24T11:43:00;88802.66;;;-145.06;47.71
59859;BME280;45734;53.648;9.566;2023-06-24T11:48:04;88620.84;;;-145.06;51.94
59859;BME280;45734;53.648;9.566;2023-06-24T11:53:08;88608.56;;;-145.06;51.16
59859;BME280;45734;53.648;9.566;2023-06-24T11:58:08;88559.56;;;-145.06;49.47
59859;BME280;45734;53.648;9.566;2023-06-24T12:03:10;88436.97;;;-145.06;45.58
59859;BME280;45734;53.648;9.566;2023-06-24T12:08:12;88727.06;;;-145.06;47.51
59859;BME280;45734;53.648;9.566;2023-06-24T12:13:15;88616.75;;;-145.06;45.99
59859;BME280;45734;53.648;9.566;2023-06-24T12:18:15;88714.81;;;-145.06;47.93
59859;BME280;45734;53.648;9.566;2023-06-24T12:23:16;88694.38;;;-145.06;48.21
59859;BME280;45734;53.648;9.566;2023-06-24T12:28:16;88645.34;;;-145.06;45.96
59859;BME280;45734;53.648;9.566;2023-06-24T12:33:16;88520.75;;;-145.06;48.01
59859;BME280;45734;53.648;9.566;2023-06-24T12:38:19;88504.41;;;-145.06;50.99
59859;BME280;45734;53.648;9.566;2023-06-24T12:43:19;88639.22;;;-145.06;48.28
59859;BME280;45734;53.648;9.566;2023-06-24T12:48:23;88469.66;;;-145.06;51.31
59859;BME280;45734;53.648;9.566;2023-06-24T12:53:24;88371.63;;;-145.06;45.69
59859;BME280;45734;53.648;9.566;2023-06-24T12:58:25;88361.41;;;-145.06;45.67
59859;BME280;45734;53.648;9.566;2023-06-24T13:03:26;88510.53;;;-145.06;44.39
59859;BME280;45734;53.648;9.566;2023-06-24T13:08:35;88530.94;;;-145.06;45.69
59859;BME280;45734;53.648;9.566;2023-06-24T13:13:36;88457.41;;;-145.06;44.31
59859;BME280;45734;53.648;9.566;2023-06-24T13:18:36;88447.19;;;-145.06;46.50
59859;BME280;45734;53.648;9.566;2023-06-24T13:23:36;88428.81;;;-145.06;44.81
59859;BME280;45734;53.648;9.566;2023-06-24T13:28:38;88543.22;;;-145.06;43.62
59859;BME280;45734;53.648;9.566;2023-06-24T13:33:39;88800.59;;;-145.06;44.09
59859;BME280;45734;53.648;9.566;2023-06-24T13:38:39;88868.03;;;-145.06;45.61
59859;BME280;45734;53.648;9.566;2023-06-24T13:43:40;88594.28;;;-145.06;47.71
59859;BME280;45734;53.648;9.566;2023-06-24T13:48:40;88692.34;;;-145.06;46.08
59859;BME280;45734;53.648;9.566;2023-06-24T13:53:41;88767.91;;;-145.06;46.66
59859;BME280;45734;53.648;9.566;2023-06-24T13:58:42;88796.53;;;-145.06;47.24
59859;BME280;45734;53.648;9.566;2023-06-24T14:03:43;88622.88;;;-145.06;45.22
59859;BME280;45734;53.648;9.566;2023-06-24T14:08:44;88874.16;;;-145.06;44.92
59859;BME280;45734;53.648;9.566;2023-06-24T14:13:45;88727.06;;;-145.06;46.63
59859;BME280;45734;53.648;9.566;2023-06-24T14:18:45;88604.50;;;-145.06;46.13
59859;BME280;45734;53.648;9.566;2023-06-24T14:23:45;88833.28;;;-145.06;45.62
59859;BME280;45734;53.648;9.566;2023-06-24T14:28:46;88980.38;;;-145.06;46.26
59859;BME280;45734;53.648;9.566;2023-06-24T14:33:46;89086.63;;;-145.06;48.36
59859;BME280;45734;53.648;9.566;2023-06-24T14:38:46;89182.66;;;-145.06;48.48
59859;BME280;45734;53.648;9.566;2023-06-24T14:43:47;89241.91;;;-145.06;49.95
59859;BME280;45734;53.648;9.566;2023-06-24T14:48:47;89156.09;;;-145.06;51.38
59859;BME280;45734;53.648;9.566;2023-06-24T14:53:47;89266.41;;;-145.06;53.39
59859;BME280;45734;53.648;9.566;2023-06-24T14:58:47;89233.72;;;-145.06;52.20
59859;BME280;45734;53.648;9.566;2023-06-24T15:03:48;89288.91;;;-145.06;53.09
59859;BME280;45734;53.648;9.566;2023-06-24T15:08:48;89380.84;;;-145.06;54.26
59859;BME280;45734;53.648;9.566;2023-06-24T15:13:48;89362.44;;;-145.06;54.27
59859;BME280;45734;53.648;9.566;2023-06-24T15:18:48;89421.69;;;-145.06;55.13
59859;BME280;45734;53.648;9.566;2023-06-24T15:23:50;89409.44;;;-145.06;55.92
59859;BME280;45734;53.648;9.566;2023-06-24T15:28:50;89368.59;;;-145.06;57.61
59859;BME280;45734;53.648;9.566;2023-06-24T15:33:50;89237.81;;;-145.06;58.77
59859;BME280;45734;53.648;9.566;2023-06-24T15:38:50;89221.47;;;-145.06;57.40
59859;BME280;45734;53.648;9.566;2023-06-24T15:43:51;89237.81;;;-145.06;57.41
59859;BME280;45734;53.648;9.566;2023-06-24T15:48:51;89319.53;;;-145.06;57.41
59859;BME280;45734;53.648;9.566;2023-06-24T15:53:51;89292.97;;;-145.06;56.73
59859;BME280;45734;53.648;9.566;2023-06-24T15:58:52;89348.16;;;-145.06;56.08
59859;BME280;45734;53.648;9.566;2023-06-24T16:03:53;89317.50;;;-145.06;58.92
59859;BME280;45734;53.648;9.566;2023-06-24T16:08:53;89143.84;;;-145.06;58.92
59859;BME280;45734;53.648;9.566;2023-06-24T16:13:53;89049.84;;;-145.06;57.64
59859;BME280;45734;53.648;9.566;2023-06-24T16:18:54;89084.59;;;-145.06;55.98
59859;BME280;45734;53.648;9.566;2023-06-24T16:23:54;89066.19;;;-145.06;58.23
59859;BME280;45734;53.648;9.566;2023-06-24T16:28:55;89147.91;;;-145.06;55.59
59859;BME280;45734;53.648;9.566;2023-06-24T16:33:55;89292.97;;;-145.06;55.78
59859;BME280;45734;53.648;9.566;2023-06-24T16:38:56;89344.06;;;-145.06;56.53
59859;BME280;45734;53.648;9.566;2023-06-24T16:43:56;89368.59;;;-145.06;56.11
59859;BME280;45734;53.648;9.566;2023-06-24T16:48:57;89417.63;;;-145.06;57.29
59859;BME280;45734;53.648;9.566;2023-06-24T16:53:59;89421.69;;;-145.06;57.54
59859;BME280;45734;53.648;9.566;2023-06-24T16:58:59;89497.31;;;-145.06;59.83
59859;BME280;45734;53.648;9.566;2023-06-24T17:03:59;89530.00;;;-145.06;61.94
59859;BME280;45734;53.648;9.566;2023-06-24T17:09:00;89572.91;;;-145.06;63.78
59859;BME280;45734;53.648;9.566;2023-06-24T17:14:00;89646.47;;;-145.06;65.31
59859;BME280;45734;53.648;9.566;2023-06-24T17:19:00;89666.91;;;-145.06;67.08
59859;BME280;45734;53.648;9.566;2023-06-24T17:24:01;89658.72;;;-145.06;67.06
59859;BME280;45734;53.648;9.566;2023-06-24T17:29:02;89689.38;;;-145.06;67.75
59859;BME280;45734;53.648;9.566;2023-06-24T17:34:02;89695.50;;;-145.06;68.46
59859;BME280;45734;53.648;9.566;2023-06-24T17:39:02;89738.41;;;-145.06;69.33
59859;BME280;45734;53.648;9.566;2023-06-24T17:44:03;89728.19;;;-145.06;67.79
59859;BME280;45734;53.648;9.566;2023-06-24T17:49:03;89773.16;;;-145.06;67.92
59859;BME280;45734;53.648;9.566;2023-06-24T17:54:03;89775.19;;;-145.06;69.20
59859;BME280;45734;53.648;9.566;2023-06-24T17:59:04;89781.34;;;-145.06;67.34
59859;BME280;45734;53.648;9.566;2023-06-24T18:04:04;89777.25;;;-145.06;67.10
59859;BME280;45734;53.648;9.566;2023-06-24T18:09:04;89793.59;;;-145.06;67.00
59859;BME280;45734;53.648;9.566;2023-06-24T18:14:04;89846.72;;;-145.06;67.47
59859;BME280;45734;53.648;9.566;2023-06-24T18:19:05;89834.47;;;-145.06;68.00
59859;BME280;45734;53.648;9.566;2023-06-24T18:24:05;89826.28;;;-145.06;67.29
59859;BME280;45734;53.648;9.566;2023-06-24T18:29:06;89842.63;;;-145.06;67.49
59859;BME280;45734;53.648;9.566;2023-06-24T18:34:06;89854.91;;;-145.06;67.76
59859;BME280;45734;53.648;9.566;2023-06-24T18:39:06;89854.91;;;-145.06;67.21
59859;BME280;45734;53.648;9.566;2023-06-24T18:44:07;89877.38;;;-145.06;67.59
59859;BME280;45734;53.648;9.566;2023-06-24T18:49:08;89928.47;;;-145.06;69.60
59859;BME280;45734;53.648;9.566;2023-06-24T18:54:08;89908.03;;;-145.06;70.01
59859;BME280;45734;53.648;9.566;2023-06-24T18:59:09;89950.94;;;-145.06;70.79
59859;BME280;45734;53.648;9.566;2023-06-24T19:04:09;89967.28;;;-145.06;72.43
59859;BME280;45734;53.648;9.566;2023-06-24T19:09:09;90002.03;;;-145.06;76.21
59859;BME280;45734;53.648;9.566;2023-06-24T19:14:10;90020.41;;;-145.06;75.91
59859;BME280;45734;53.648;9.566;2023-06-24T19:19:10;90073.56;;;-145.06;83.95
59859;BME280;45734;53.648;9.566;2023-06-24T19:24:10;90085.81;;;-145.06;84.32
59859;BME280;45734;53.648;9.566;2023-06-24T19:29:11;90183.91;;;-145.06;90.41
59859;BME280;45734;53.648;9.566;2023-06-24T19:34:11;90206.38;;;-145.06;90.58
59859;BME280;45734;53.648;9.566;2023-06-24T19:39:11;90251.34;;;-145.06;93.46
59859;BME280;45734;53.648;9.566;2023-06-24T19:44:11;90247.25;;;-145.06;95.97
59859;BME280;45734;53.648;9.566;2023-06-24T19:49:12;90237.03;;;-145.06;93.90
59859;BME280;45734;53.648;9.566;2023-06-24T19:54:12;90286.09;;;-145.06;99.85
59859;BME280;45734;53.648;9.566;2023-06-24T19:59:12;90314.69;;;-145.06;96.34
59859;BME280;45734;53.648;9.566;2023-06-24T20:04:13;90324.91;;;-145.06;98.79
59859;BME280;45734;53.648;9.566;2023-06-24T20:09:13;90373.97;;;-145.06;97.98
59859;BME280;45734;53.648;9.566;2023-06-24T20:14:13;90388.28;;;-145.06;97.33
59859;BME280;45734;53.648;9.566;2023-06-24T20:19:14;90398.50;;;-145.06;98.77
59859;BME280;45734;53.648;9.566;2023-06-24T20:24:14;90404.63;;;-145.06;97.92
59859;BME280;45734;53.648;9.566;2023-06-24T20:29:14;90398.50;;;-145.06;97.46
59859;BME280;45734;53.648;9.566;2023-06-24T20:34:15;90406.66;;;-145.06;98.08
59859;BME280;45734;53.648;9.566;2023-06-24T20:39:15;90467.97;;;-145.06;98.27
59859;BME280;45734;53.648;9.566;2023-06-24T20:44:15;90443.44;;;-145.06;100.00
59859;BME280;45734;53.648;9.566;2023-06-24T20:49:15;90492.50;;;-145.06;99.62
59859;BME280;45734;53.648;9.566;2023-06-24T20:54:16;90496.59;;;-145.06;99.83
59859;BME280;45734;53.648;9.566;2023-06-24T20:59:16;90423.00;;;-145.06;99.38
59859;BME280;45734;53.648;9.566;2023-06-24T21:04:16;90496.59;;;-145.06;99.57
59859;BME280;45734;53.648;9.566;2023-06-24T21:09:17;90478.19;;;-145.06;99.37
59859;BME280;45734;53.648;9.566;2023-06-24T21:14:18;90494.56;;;-145.06;99.16
59859;BME280;45734;53.648;9.566;2023-06-24T21:19:18;90488.41;;;-145.06;100.00
59859;BME280;45734;53.648;9.566;2023-06-24T21:24:18;90465.94;;;-145.06;100.00
59859;BME280;45734;53.648;9.566;2023-06-24T21:29:19;90508.84;;;-145.06;100.00
59859;BME280;45734;53.648;9.566;2023-06-24T21:34:19;90533.38;;;-145.06;100.00
59859;BME280;45734;53.648;9.566;2023-06-24T21:39:19;90559.94;;;-145.06;100.00
59859;BME280;45734;53.648;9.566;2023-06-24T21:44:20;90535.44;;;-145.06;100.00
59859;BME280;45734;53.648;9.566;2023-06-24T21:49:20;90545.66;;;-145.06;100.00
59859;BME280;45734;53.648;9.566;2023-06-24T21:54:20;90600.81;;;-145.06;100.00
59859;BME280;45734;53.648;9.566;2023-06-24T21:59:21;90627.41;;;-145.06;100.00
59859;BME280;45734;53.648;9.566;2023-06-24T22:04:22;90627.41;;;-145.06;100.00
59859;BME280;45734;53.648;9.566;2023-06-24T22:09:23;90694.84;;;-145.06;100.00
59859;BME280;45734;53.648;9.566;2023-06-24T22:14:23;90700.97;;;-145.06;100.00
59859;BME280;45734;53.648;9.566;2023-06-24T22:19:23;90698.94;;;-145.06;100.00
59859;BME280;45734;53.648;9.566;2023-06-24T22:24:24;90707.09;;;-145.06;100.00
59859;BME280;45734;53.648;9.566;2023-06-24T22:29:24;90748.00;;;-145.06;100.00
59859;BME280;45734;53.648;9.566;2023-06-24T22:34:24;90735.72;;;-145.06;100.00
59859;BME280;45734;53.648;9.566;2023-06-24T22:39:24;90733.69;;;-145.06;100.00
59859;BME280;45734;53.648;9.566;2023-06-24T22:44:25;90723.47;;;-145.06;100.00
59859;BME280;45734;53.648;9.566;2023-06-24T22:49:25;90799.09;;;-145.06;100.00
59859;BME280;45734;53.648;9.566;2023-06-24T22:54:29;90764.34;;;-145.06;100.00
59859;BME280;45734;53.648;9.566;2023-06-24T22:59:29;90803.16;;;-145.06;100.00
59859;BME280;45734;53.648;9.566;2023-06-24T23:04:29;90819.53;;;-145.06;100.00
59859;BME280;45734;53.648;9.566;2023-06-24T23:09:30;90817.47;;;-145.06;100.00
59859;BME280;45734;53.648;9.566;2023-06-24T23:14:30;90854.28;;;-145.06;100.00
59859;BME280;45734;53.648;9.566;2023-06-24T23:19:32;90850.19;;;-145.06;100.00
59859;BME280;45734;53.648;9.566;2023-06-24T23:24:33;90897.19;;;-145.06;100.00
59859;BME280;45734;53.648;9.566;2023-06-24T23:29:36;90825.66;;;-145.06;100.00
59859;BME280;45734;53.648;9.566;2023-06-24T23:34:37;90864.50;;;-145.06;100.00
59859;BME280;45734;53.648;9.566;2023-06-24T23:39:38;90870.63;;;-145.06;100.00
59859;BME280;45734;53.648;9.566;2023-06-24T23:44:38;90907.41;;;-145.06;100.00
59859;BME280;45734;53.648;9.566;2023-06-24T23:49:39;90884.94;;;-145.06;100.00
59859;BME280;45734;53.648;9.566;2023-06-24T23:54:39;90876.75;;;-145.06;100.00
59859;BME280;45734;53.648;9.566;2023-06-24T23:59:39;90870.63;;;-145.06;100.00
